Time;durP1;ratioP1;P1;durP2;ratioP2;P2;SDS_P1;SDS_P2;PMS_P1;PMS_P2;Temp;Humidity;BMP_temperature;BMP_pressure;BME280_temperature;BME280_humidity;BME280_pressure;Samples;Min_cycle;Max_cycle;Signal;HPM_P1;HPM_P2
2022/09/16 00:00:28;;;;;;;3.80;1.80;;;15.90;98.60;;;;;;5059306;28;20464;-80
2022/09/16 00:02:56;;;;;;;1.90;0.93;;;15.90;98.60;;;;;;5037420;28;20882;-82
2022/09/16 00:05:29;;;;;;;3.47;2.57;;;15.90;98.60;;;;;;5037578;28;20474;-80
2022/09/16 00:07:58;;;;;;;2.80;1.50;;;15.90;98.50;;;;;;5038491;28;20448;-83
2022/09/16 00:10:25;;;;;;;2.30;1.30;;;15.90;98.40;;;;;;5059157;28;20542;-80
2022/09/16 00:12:54;;;;;;;1.80;1.10;;;15.80;98.40;;;;;;5043141;28;20456;-81
2022/09/16 00:15:24;;;;;;;3.40;1.20;;;15.80;98.50;;;;;;5041288;28;20464;-82
2022/09/16 00:17:51;;;;;;;3.73;1.60;;;15.70;98.30;;;;;;5057647;28;20841;-80
2022/09/16 00:20:19;;;;;;;3.73;1.10;;;15.70;98.50;;;;;;5043241;28;20472;-80
2022/09/16 00:22:46;;;;;;;2.97;1.10;;;15.70;98.50;;;;;;5046462;28;20552;-81
2022/09/16 00:25:16;;;;;;;1.23;1.00;;;15.70;98.40;;;;;;5050957;28;20452;-81
2022/09/16 00:27:43;;;;;;;2.00;1.10;;;15.70;98.40;;;;;;5047702;28;21169;-80
2022/09/16 00:30:14;;;;;;;2.03;1.00;;;15.70;98.20;;;;;;5054979;28;20507;-81
2022/09/16 00:32:43;;;;;;;2.43;1.07;;;15.70;98.10;;;;;;5054384;28;20571;-82
2022/09/16 00:35:10;;;;;;;2.40;1.83;;;15.70;98.00;;;;;;5036630;28;20449;-82
2022/09/16 00:37:37;;;;;;;3.33;1.17;;;15.80;98.00;;;;;;5032548;28;20455;-80
2022/09/16 00:40:06;;;;;;;1.23;0.80;;;15.70;98.00;;;;;;5045548;28;20457;-81
2022/09/16 00:42:40;;;;;;;3.40;1.00;;;15.80;97.80;;;;;;5040730;28;20480;-82
2022/09/16 00:45:17;;;;;;;3.20;0.90;;;15.80;97.70;;;;;;5039331;28;20444;-83
2022/09/16 00:47:52;;;;;;;5.27;1.10;;;15.80;97.70;;;;;;5034798;28;20933;-82
2022/09/16 00:50:36;;;;;;;1.63;1.00;;;15.70;97.80;;;;;;5042077;28;20476;-82
2022/09/16 00:53:08;;;;;;;2.10;1.13;;;15.70;97.90;;;;;;5041711;28;20456;-82
2022/09/16 00:55:37;;;;;;;3.50;1.47;;;15.70;98.00;;;;;;5043317;28;20453;-82
2022/09/16 00:58:31;;;;;;;2.10;1.00;;;15.60;98.20;;;;;;5038193;28;21152;-81
2022/09/16 01:01:06;;;;;;;2.97;1.20;;;15.60;98.30;;;;;;5042443;28;20460;-81
2022/09/16 01:03:41;;;;;;;1.83;0.83;;;15.60;98.30;;;;;;5042190;28;20464;-81
2022/09/16 01:06:10;;;;;;;3.60;1.60;;;15.60;98.30;;;;;;5043072;28;20444;-81
2022/09/16 01:08:37;;;;;;;1.77;1.17;;;15.60;98.40;;;;;;5049966;28;20441;-81
2022/09/16 01:11:04;;;;;;;0.77;0.70;;;15.60;98.30;;;;;;5066335;28;20468;-80
2022/09/16 01:13:30;;;;;;;5.50;1.17;;;15.60;98.30;;;;;;5062619;28;20460;-82
2022/09/16 01:16:24;;;;;;;1.50;0.90;;;15.70;98.40;;;;;;5037493;28;20504;-81
2022/09/16 01:19:09;;;;;;;2.00;1.10;;;15.60;98.40;;;;;;5030692;28;20476;-81
2022/09/16 01:21:49;;;;;;;3.70;1.43;;;15.60;98.50;;;;;;5051813;28;20480;-82
2022/09/16 01:24:34;;;;;;;2.47;1.23;;;15.60;98.60;;;;;;5040987;28;20476;-82
2022/09/16 01:27:20;;;;;;;1.80;1.10;;;15.60;98.80;;;;;;5039983;28;20494;-82
2022/09/16 01:30:02;;;;;;;1.73;1.00;;;15.50;98.80;;;;;;5038687;28;20617;-81
2022/09/16 01:32:38;;;;;;;3.20;1.07;;;15.60;98.90;;;;;;5051648;28;20476;-83
2022/09/16 01:35:14;;;;;;;3.20;1.20;;;15.60;98.90;;;;;;5050864;28;20444;-83
2022/09/16 01:38:21;;;;;;;5.03;1.17;;;15.60;98.90;;;;;;5034054;28;20436;-81
2022/09/16 01:41:05;;;;;;;1.10;1.00;;;15.60;98.90;;;;;;5038667;28;20504;-82
2022/09/16 01:43:41;;;;;;;3.43;0.83;;;15.60;99.00;;;;;;5033188;28;20500;-81
2022/09/16 01:46:16;;;;;;;2.73;1.10;;;15.60;99.10;;;;;;5052284;28;20518;-81
2022/09/16 01:49:12;;;;;;;2.90;1.67;;;15.60;99.10;;;;;;5033495;28;20836;-81
2022/09/16 01:51:56;;;;;;;1.37;1.03;;;15.60;99.20;;;;;;5048094;28;20499;-81
2022/09/16 01:54:40;;;;;;;3.33;1.07;;;15.60;99.30;;;;;;5033659;28;20463;-82
2022/09/16 01:57:39;;;;;;;3.53;1.63;;;15.60;99.40;;;;;;5032234;28;21083;-81
2022/09/16 02:00:09;;;;;;;4.60;1.43;;;15.60;99.50;;;;;;5026486;28;20468;-80
2022/09/16 02:02:40;;;;;;;3.27;1.60;;;15.60;99.60;;;;;;5034239;28;20460;-82
2022/09/16 02:05:23;;;;;;;2.23;1.30;;;15.60;99.70;;;;;;5049959;28;20461;-84
2022/09/16 02:07:55;;;;;;;3.77;1.73;;;15.60;99.70;;;;;;5032329;28;20492;-81
2022/09/16 02:10:27;;;;;;;3.83;1.40;;;15.60;99.80;;;;;;5031937;28;21311;-82
2022/09/16 02:13:09;;;;;;;4.50;1.47;;;15.60;99.90;;;;;;5038975;28;20475;-82
2022/09/16 02:15:38;;;;;;;2.90;1.07;;;15.60;99.90;;;;;;5032920;28;20442;-82
2022/09/16 02:18:10;;;;;;;3.10;1.60;;;15.60;99.90;;;;;;5032132;28;20441;-82
2022/09/16 02:20:41;;;;;;;3.13;1.67;;;15.60;99.90;;;;;;5033548;28;20630;-80
2022/09/16 02:23:15;;;;;;;2.03;1.17;;;15.70;99.90;;;;;;5029830;28;20531;-80
2022/09/16 02:25:45;;;;;;;2.90;1.53;;;15.70;99.90;;;;;;5032336;28;20981;-82
2022/09/16 02:28:18;;;;;;;2.87;1.20;;;15.70;99.90;;;;;;5047189;28;20457;-81
2022/09/16 02:30:50;;;;;;;5.90;1.73;;;15.70;99.90;;;;;;5037211;28;20489;-80
2022/09/16 02:33:19;;;;;;;3.80;1.40;;;15.60;99.90;;;;;;5031188;28;20548;-80
2022/09/16 02:35:49;;;;;;;1.97;1.40;;;15.60;99.90;;;;;;5035671;28;20471;-82
2022/09/16 02:38:25;;;;;;;3.50;1.63;;;15.60;99.90;;;;;;5046739;28;20510;-84
2022/09/16 02:40:58;;;;;;;7.50;1.73;;;15.60;99.90;;;;;;5035581;28;21014;-84
2022/09/16 02:43:26;;;;;;;3.33;1.30;;;15.50;99.90;;;;;;5038317;28;20452;-81
2022/09/16 02:46:14;;;;;;;5.70;1.13;;;15.60;99.90;;;;;;5036241;28;20965;-81
2022/09/16 02:49:02;;;;;;;1.50;1.40;;;15.50;99.90;;;;;;5050849;28;20545;-80
2022/09/16 02:51:38;;;;;;;2.63;1.47;;;15.50;99.90;;;;;;5038854;28;20587;-81
2022/09/16 02:54:10;;;;;;;3.90;1.63;;;15.50;99.90;;;;;;5041680;28;20436;-80
2022/09/16 02:56:39;;;;;;;7.20;1.73;;;15.50;99.90;;;;;;5038677;28;20540;-80
2022/09/16 02:59:08;;;;;;;3.77;1.40;;;15.50;99.90;;;;;;5040804;28;20520;-81
2022/09/16 03:01:41;;;;;;;1.90;1.20;;;15.40;99.90;;;;;;5039298;28;20496;-80
2022/09/16 03:04:09;;;;;;;2.53;1.90;;;15.40;99.90;;;;;;5040962;28;20460;-79
2022/09/16 03:06:37;;;;;;;2.90;1.40;;;15.40;99.90;;;;;;5040316;28;20480;-81
2022/09/16 03:09:08;;;;;;;10.43;1.60;;;15.40;99.90;;;;;;5036648;28;20472;-82
2022/09/16 03:11:53;;;;;;;3.10;1.50;;;15.40;99.90;;;;;;5034885;28;20517;-82
2022/09/16 03:14:38;;;;;;;2.00;1.20;;;15.40;99.90;;;;;;5048851;28;20483;-82
2022/09/16 03:17:14;;;;;;;2.67;1.43;;;15.40;99.90;;;;;;5033791;28;20444;-81
2022/09/16 03:19:54;;;;;;;6.53;2.00;;;15.30;99.90;;;;;;5050081;28;21040;-82
2022/09/16 03:22:44;;;;;;;3.23;1.87;;;15.30;99.90;;;;;;5049856;28;21115;-82
2022/09/16 03:26:25;;;;;;;3.73;1.77;;;15.30;99.90;;;;;;5009236;28;20456;-82
2022/09/16 03:29:01;;;;;;;2.60;1.37;;;15.30;99.90;;;;;;4980966;28;20459;-82
2022/09/16 03:32:10;;;;;;;3.30;1.67;;;15.40;99.90;;;;;;4964473;28;20514;-83
2022/09/16 03:34:45;;;;;;;2.60;1.50;;;15.30;99.90;;;;;;5026471;28;20472;-82
2022/09/16 03:37:16;;;;;;;3.53;1.60;;;15.20;99.90;;;;;;5042922;28;20510;-81
2022/09/16 03:39:52;;;;;;;3.70;1.80;;;15.30;99.90;;;;;;5041153;28;21897;-80
2022/09/16 03:42:20;;;;;;;5.47;1.87;;;15.30;99.90;;;;;;5067191;28;20424;-80
2022/09/16 03:44:47;;;;;;;2.07;1.90;;;15.30;99.90;;;;;;5061634;28;20461;-81
2022/09/16 03:47:14;;;;;;;4.40;1.80;;;15.30;99.90;;;;;;5060578;28;20441;-81
2022/09/16 03:49:41;;;;;;;4.33;1.60;;;15.30;99.90;;;;;;5049751;28;20471;-81
2022/09/16 03:52:08;;;;;;;1.70;1.60;;;15.30;99.90;;;;;;5059605;28;20477;-80
2022/09/16 03:54:36;;;;;;;6.60;1.80;;;15.30;99.90;;;;;;5034422;28;20448;-81
2022/09/16 03:57:04;;;;;;;3.87;1.90;;;15.30;99.90;;;;;;5049588;28;20448;-82
2022/09/16 03:59:32;;;;;;;3.07;1.67;;;15.30;99.90;;;;;;5048584;28;20439;-83
2022/09/16 04:01:58;;;;;;;2.40;1.87;;;15.30;99.90;;;;;;5046823;28;20448;-80
2022/09/16 04:04:25;;;;;;;2.97;1.70;;;15.30;99.90;;;;;;5048308;28;20448;-80
2022/09/16 04:06:52;;;;;;;3.13;1.60;;;15.30;99.90;;;;;;5046788;28;20498;-81
2022/09/16 04:09:19;;;;;;;4.73;2.00;;;15.30;99.90;;;;;;5049009;28;20452;-81
2022/09/16 04:11:45;;;;;;;3.83;2.47;;;15.30;99.90;;;;;;5048816;28;20503;-80
2022/09/16 04:14:12;;;;;;;2.80;1.80;;;15.30;99.90;;;;;;5047634;28;20459;-79
2022/09/16 04:16:38;;;;;;;3.53;1.70;;;15.30;99.90;;;;;;5046491;28;20472;-80
2022/09/16 04:19:12;;;;;;;4.23;1.93;;;15.30;99.90;;;;;;5047297;28;20456;-79
2022/09/16 04:21:40;;;;;;;4.93;1.90;;;15.20;99.90;;;;;;5047093;28;20529;-80
2022/09/16 04:24:07;;;;;;;4.63;1.63;;;15.20;99.90;;;;;;5048651;28;20441;-82
2022/09/16 04:26:38;;;;;;;3.97;1.50;;;15.20;99.90;;;;;;5045390;28;20467;-81
2022/09/16 04:29:05;;;;;;;3.60;1.50;;;15.20;99.90;;;;;;5046726;28;20436;-80
2022/09/16 04:31:32;;;;;;;5.87;1.73;;;15.20;99.90;;;;;;5043700;28;20485;-81
2022/09/16 04:34:01;;;;;;;3.60;1.70;;;15.20;99.90;;;;;;5043213;28;20453;-80
2022/09/16 04:36:28;;;;;;;3.83;1.33;;;15.20;99.90;;;;;;5039581;28;20468;-82
2022/09/16 04:38:55;;;;;;;2.30;1.40;;;15.10;99.90;;;;;;5040295;28;20546;-82
2022/09/16 04:41:24;;;;;;;3.93;1.57;;;15.10;99.90;;;;;;5038722;28;20472;-80
2022/09/16 04:43:54;;;;;;;3.93;2.10;;;15.10;99.90;;;;;;5035863;28;20452;-81
2022/09/16 04:46:23;;;;;;;4.30;1.70;;;15.10;99.90;;;;;;5040604;28;20452;-82
2022/09/16 04:48:52;;;;;;;4.13;1.80;;;15.00;99.90;;;;;;5038070;28;20551;-81
2022/09/16 04:51:21;;;;;;;5.70;2.13;;;15.00;99.90;;;;;;5035554;28;20480;-83
2022/09/16 04:53:49;;;;;;;3.80;1.70;;;15.00;99.90;;;;;;5038311;28;20465;-83
2022/09/16 04:56:21;;;;;;;4.30;1.50;;;15.00;99.90;;;;;;5035032;28;21143;-80
2022/09/16 04:58:54;;;;;;;3.47;1.53;;;15.00;99.90;;;;;;5039346;28;21144;-82
2022/09/16 05:01:27;;;;;;;2.60;1.30;;;15.00;99.90;;;;;;5037516;28;20476;-81
2022/09/16 05:03:56;;;;;;;3.73;1.77;;;14.90;99.90;;;;;;5050497;28;20529;-80
2022/09/16 05:06:26;;;;;;;5.77;1.93;;;15.00;99.90;;;;;;5034227;28;20453;-80
2022/09/16 05:08:54;;;;;;;1.87;1.77;;;15.00;99.90;;;;;;5054027;28;20449;-81
2022/09/16 05:11:24;;;;;;;5.30;1.70;;;15.00;99.90;;;;;;5053764;28;20644;-82
2022/09/16 05:13:51;;;;;;;3.40;2.10;;;15.00;99.90;;;;;;5037921;28;20453;-81
2022/09/16 05:16:21;;;;;;;5.40;1.83;;;15.00;99.90;;;;;;5038005;28;20448;-81
2022/09/16 05:18:50;;;;;;;1.80;1.70;;;15.10;99.90;;;;;;5039996;28;20449;-81
2022/09/16 05:21:20;;;;;;;6.17;4.10;;;15.00;99.90;;;;;;5035515;28;20476;-82
2022/09/16 05:23:47;;;;;;;4.40;3.13;;;15.00;99.90;;;;;;5051074;28;20498;-81
2022/09/16 05:26:17;;;;;;;3.53;1.50;;;15.00;99.90;;;;;;5037017;28;20548;-82
2022/09/16 05:28:44;;;;;;;4.63;1.80;;;15.00;99.90;;;;;;5040183;28;20457;-82
2022/09/16 05:31:15;;;;;;;3.27;1.40;;;15.00;99.90;;;;;;5036299;28;20468;-82
2022/09/16 05:33:52;;;;;;;4.03;2.00;;;15.00;99.90;;;;;;5040667;28;20457;-81
2022/09/16 05:36:19;;;;;;;3.80;1.80;;;14.90;99.90;;;;;;5038137;28;20451;-82
2022/09/16 05:38:45;;;;;;;6.27;2.10;;;14.90;99.90;;;;;;5034696;28;20457;-82
2022/09/16 05:41:31;;;;;;;6.63;3.40;;;15.00;99.90;;;;;;5035831;28;20478;-82
2022/09/16 05:43:59;;;;;;;2.70;1.40;;;15.00;99.90;;;;;;5037364;28;20456;-83
2022/09/16 05:46:28;;;;;;;3.97;1.50;;;15.10;99.90;;;;;;5035198;28;20544;-82
2022/09/16 05:48:55;;;;;;;5.00;1.80;;;15.10;99.90;;;;;;5035988;28;20479;-82
2022/09/16 05:51:22;;;;;;;6.53;1.67;;;15.10;99.90;;;;;;5038792;28;20521;-81
2022/09/16 05:53:53;;;;;;;3.17;1.23;;;15.10;99.90;;;;;;5041374;28;20528;-82
2022/09/16 05:56:24;;;;;;;3.03;1.73;;;15.10;99.70;;;;;;5055606;28;20467;-82
2022/09/16 05:58:59;;;;;;;4.83;2.00;;;15.00;99.70;;;;;;5037584;28;20453;-80
2022/09/16 06:01:31;;;;;;;2.97;1.30;;;15.10;99.70;;;;;;5060270;28;20471;-81
2022/09/16 06:04:01;;;;;;;2.40;1.77;;;15.10;99.60;;;;;;5061894;28;20445;-80
2022/09/16 06:06:37;;;;;;;3.77;2.00;;;15.00;99.50;;;;;;5048549;28;20456;-80
2022/09/16 06:09:09;;;;;;;4.10;1.50;;;15.00;99.50;;;;;;5049544;28;20807;-80
2022/09/16 06:11:42;;;;;;;6.20;1.70;;;15.00;99.50;;;;;;5052716;28;20584;-81
2022/09/16 06:14:10;;;;;;;3.20;1.23;;;15.10;99.40;;;;;;5054995;28;20491;-82
2022/09/16 06:16:38;;;;;;;5.70;1.57;;;15.00;99.30;;;;;;5058040;28;20461;-82
2022/09/16 06:19:09;;;;;;;5.50;1.77;;;15.10;99.30;;;;;;5065779;28;20428;-83
2022/09/16 06:21:36;;;;;;;1.30;1.20;;;15.10;99.30;;;;;;5060841;28;20541;-82
2022/09/16 06:24:07;;;;;;;2.10;1.43;;;15.20;99.20;;;;;;5041340;28;20453;-82
2022/09/16 06:26:40;;;;;;;5.27;1.30;;;15.20;99.20;;;;;;5036613;28;20470;-82
2022/09/16 06:29:08;;;;;;;5.30;1.80;;;15.20;99.10;;;;;;5038501;28;20452;-80
2022/09/16 06:31:36;;;;;;;2.03;1.27;;;15.20;98.80;;;;;;5041618;28;20806;-81
2022/09/16 06:34:04;;;;;;;3.70;1.30;;;15.40;98.80;;;;;;5047562;28;20490;-82
2022/09/16 06:36:34;;;;;;;1.90;1.13;;;15.50;98.30;;;;;;5057704;28;20467;-80
2022/09/16 06:39:01;;;;;;;3.33;1.33;;;15.60;98.00;;;;;;5068465;28;20502;-81
2022/09/16 06:41:29;;;;;;;2.50;1.20;;;15.60;97.80;;;;;;5040000;28;20472;-82
2022/09/16 06:43:56;;;;;;;1.97;1.20;;;15.50;98.00;;;;;;5043061;28;20449;-82
2022/09/16 06:46:25;;;;;;;5.47;1.40;;;15.40;98.20;;;;;;5040990;28;20465;-81
2022/09/16 06:48:55;;;;;;;3.70;1.50;;;15.40;98.30;;;;;;5040681;28;20492;-81
2022/09/16 06:51:29;;;;;;;1.50;1.40;;;15.40;98.20;;;;;;5037015;28;20495;-81
2022/09/16 06:54:01;;;;;;;4.70;1.50;;;15.30;98.20;;;;;;5019339;28;20448;-82
2022/09/16 06:56:28;;;;;;;4.03;2.13;;;15.30;98.30;;;;;;5034726;28;20436;-82
2022/09/16 06:58:56;;;;;;;5.37;1.67;;;15.30;98.40;;;;;;5033662;28;20449;-82
2022/09/16 07:01:26;;;;;;;2.40;1.40;;;15.40;98.50;;;;;;5033935;28;20476;-80
2022/09/16 07:03:55;;;;;;;2.20;1.57;;;15.40;98.30;;;;;;5039709;28;20529;-84
2022/09/16 07:06:26;;;;;;;4.00;1.60;;;15.40;98.20;;;;;;5040330;28;20445;-81
2022/09/16 07:09:13;;;;;;;2.50;1.40;;;15.50;98.20;;;;;;5041200;28;20510;-81
2022/09/16 07:11:40;;;;;;;4.10;1.30;;;15.70;98.00;;;;;;5043934;28;20548;-80
2022/09/16 07:14:08;;;;;;;3.70;1.50;;;15.80;97.90;;;;;;5052718;28;20568;-81
2022/09/16 07:16:35;;;;;;;3.10;1.30;;;15.80;97.50;;;;;;5038220;28;20719;-82
2022/09/16 07:19:03;;;;;;;1.47;1.27;;;15.70;97.60;;;;;;5055876;28;20502;-81
2022/09/16 07:21:30;;;;;;;3.13;1.30;;;15.70;97.60;;;;;;5038574;28;20472;-83
2022/09/16 07:23:59;;;;;;;3.83;2.10;;;15.50;97.90;;;;;;5034541;28;20449;-83
2022/09/16 07:26:29;;;;;;;3.47;1.20;;;15.50;98.00;;;;;;5031370;28;20481;-83
2022/09/16 07:28:59;;;;;;;5.07;1.40;;;15.50;97.90;;;;;;5040258;28;20479;-81
2022/09/16 07:31:29;;;;;;;4.00;1.40;;;15.50;98.00;;;;;;5054444;28;20461;-82
2022/09/16 07:33:57;;;;;;;6.43;1.93;;;15.70;98.10;;;;;;5038566;28;20558;-82
2022/09/16 07:36:36;;;;;;;3.50;2.03;;;16.20;97.60;;;;;;5036085;28;20505;-81
2022/09/16 07:39:04;;;;;;;2.60;1.23;;;16.40;96.80;;;;;;5051970;28;20536;-82
2022/09/16 07:41:35;;;;;;;2.10;1.43;;;16.30;96.50;;;;;;5037487;28;21402;-81
2022/09/16 07:44:04;;;;;;;4.00;1.50;;;16.10;96.70;;;;;;5036818;28;20437;-82
2022/09/16 07:46:33;;;;;;;2.53;1.27;;;15.90;97.20;;;;;;5035991;28;20498;-80
2022/09/16 07:49:04;;;;;;;4.47;1.23;;;15.80;97.70;;;;;;5040368;28;20491;-83
2022/09/16 07:51:30;;;;;;;4.10;1.43;;;15.80;98.00;;;;;;5038170;28;20511;-82
2022/09/16 07:54:04;;;;;;;4.37;1.37;;;15.80;98.10;;;;;;5050907;28;20537;-80
2022/09/16 07:56:33;;;;;;;7.30;1.73;;;15.90;98.00;;;;;;5034192;28;20972;-82
2022/09/16 07:59:02;;;;;;;2.60;1.30;;;16.00;97.70;;;;;;5037324;28;21803;-82
2022/09/16 08:01:30;;;;;;;3.03;1.23;;;16.00;97.80;;;;;;5037312;28;20492;-81
2022/09/16 08:03:59;;;;;;;5.47;1.50;;;16.00;97.90;;;;;;5034992;28;20452;-82
2022/09/16 08:06:28;;;;;;;1.93;1.30;;;15.90;98.10;;;;;;5051905;28;20464;-83
2022/09/16 08:08:58;;;;;;;4.60;1.47;;;15.90;98.10;;;;;;5035969;28;20530;-82
2022/09/16 08:11:29;;;;;;;1.90;1.30;;;15.90;98.20;;;;;;5032513;28;20481;-82
2022/09/16 08:13:59;;;;;;;4.77;1.60;;;15.90;98.30;;;;;;5037647;28;21052;-81
2022/09/16 08:16:27;;;;;;;2.37;1.60;;;15.90;98.30;;;;;;5031795;28;20541;-83
2022/09/16 08:18:56;;;;;;;1.77;1.50;;;16.00;98.20;;;;;;5031447;28;20548;-82
2022/09/16 08:21:28;;;;;;;2.07;1.50;;;16.00;98.00;;;;;;5030984;28;20498;-82
2022/09/16 08:23:55;;;;;;;4.17;1.53;;;15.90;97.90;;;;;;5030521;28;20503;-81
2022/09/16 08:26:23;;;;;;;3.37;1.50;;;15.90;98.00;;;;;;5032136;28;20451;-81
2022/09/16 08:28:50;;;;;;;4.87;2.27;;;16.10;98.20;;;;;;5032053;28;20970;-82
2022/09/16 08:31:33;;;;;;;3.30;1.87;;;16.20;97.60;;;;;;5029775;28;20503;-82
2022/09/16 08:34:00;;;;;;;2.90;1.70;;;16.30;97.00;;;;;;5047429;28;21253;-82
2022/09/16 08:36:27;;;;;;;4.17;1.93;;;16.50;96.50;;;;;;5031479;28;20514;-81
2022/09/16 08:38:55;;;;;;;5.60;3.47;;;16.50;96.10;;;;;;5031859;28;20466;-82
2022/09/16 08:41:58;;;;;;;3.50;1.90;;;16.60;96.00;;;;;;5029725;28;20770;-82
2022/09/16 08:44:51;;;;;;;3.70;2.00;;;16.60;95.60;;;;;;5033704;28;20539;-81
2022/09/16 08:47:30;;;;;;;2.07;1.60;;;16.70;95.80;;;;;;5031850;28;21011;-84
2022/09/16 08:50:00;;;;;;;1.40;1.30;;;16.90;95.40;;;;;;5030963;28;20525;-83
2022/09/16 08:52:30;;;;;;;4.37;1.60;;;17.20;95.00;;;;;;5030618;28;20974;-84
2022/09/16 08:55:02;;;;;;;2.10;1.30;;;17.30;94.80;;;;;;5032365;28;20460;-80
2022/09/16 08:57:33;;;;;;;1.73;0.90;;;17.50;94.30;;;;;;5033024;28;20479;-80
2022/09/16 09:00:15;;;;;;;2.73;1.30;;;17.60;93.60;;;;;;5032834;28;20906;-82
2022/09/16 09:02:48;;;;;;;4.10;1.73;;;17.50;93.40;;;;;;5046620;28;20488;-82
2022/09/16 09:05:24;;;;;;;3.73;2.80;;;17.60;93.00;;;;;;5032699;28;20486;-81
2022/09/16 09:08:14;;;;;;;1.10;0.80;;;17.30;93.30;;;;;;5038379;28;20452;-81
2022/09/16 09:10:49;;;;;;;3.70;1.53;;;17.20;93.50;;;;;;5032964;28;20564;-81
2022/09/16 09:13:35;;;;;;;3.77;1.40;;;17.30;93.70;;;;;;5035754;28;20900;-83
2022/09/16 09:16:15;;;;;;;4.40;1.10;;;17.40;93.40;;;;;;5033237;28;21281;-82
2022/09/16 09:19:16;;;;;;;3.10;0.93;;;17.40;93.10;;;;;;5048897;28;20980;-83
2022/09/16 09:21:59;;;;;;;1.50;0.87;;;17.30;93.10;;;;;;5031440;28;20461;-83
2022/09/16 09:24:54;;;;;;;1.77;1.00;;;17.20;92.60;;;;;;5032298;28;20456;-83
2022/09/16 09:27:41;;;;;;;1.43;1.10;;;17.40;92.60;;;;;;5032241;28;20425;-83
2022/09/16 09:30:18;;;;;;;7.13;1.50;;;17.60;92.00;;;;;;5032318;28;20468;-82
2022/09/16 09:33:05;;;;;;;2.60;1.17;;;17.70;92.10;;;;;;5032305;28;20477;-81
2022/09/16 09:36:02;;;;;;;10.30;8.30;;;17.60;92.40;;;;;;5046869;28;20463;-82
2022/09/16 09:38:52;;;;;;;3.33;2.10;;;17.70;92.30;;;;;;5054277;28;20487;-82
2022/09/16 09:41:26;;;;;;;2.20;1.97;;;17.70;90.90;;;;;;5040757;28;20473;-81
2022/09/16 09:44:01;;;;;;;2.50;1.10;;;17.60;91.20;;;;;;5031731;28;20451;-83
2022/09/16 09:46:34;;;;;;;1.53;0.90;;;17.50;91.30;;;;;;5032722;28;21124;-83
2022/09/16 09:49:45;;;;;;;4.67;2.33;;;17.40;91.40;;;;;;5033353;28;20554;-81
2022/09/16 09:52:43;;;;;;;1.50;0.70;;;17.30;91.20;;;;;;4990781;28;20458;-82
2022/09/16 09:55:31;;;;;;;1.77;0.90;;;17.30;91.60;;;;;;4993409;28;20446;-83
2022/09/16 09:58:08;;;;;;;2.57;0.80;;;17.30;91.20;;;;;;5026614;28;20453;-83
2022/09/16 10:00:35;;;;;;;3.07;1.20;;;17.40;90.80;;;;;;5032933;28;20487;-82
2022/09/16 10:03:19;;;;;;;4.00;1.47;;;17.30;90.50;;;;;;5035120;28;21826;-81
2022/09/16 10:05:47;;;;;;;0.83;0.70;;;17.40;90.70;;;;;;5031054;28;20458;-82
2022/09/16 10:08:20;;;;;;;3.67;1.47;;;17.50;90.80;;;;;;5036430;28;20452;-82
2022/09/16 10:10:53;;;;;;;2.43;1.00;;;17.40;90.90;;;;;;5048864;28;20592;-82
2022/09/16 10:13:21;;;;;;;2.33;0.90;;;17.50;91.00;;;;;;5056324;28;20488;-81
2022/09/16 10:15:52;;;;;;;5.03;1.73;;;17.60;90.60;;;;;;5039289;28;20469;-82
2022/09/16 10:18:28;;;;;;;3.40;1.23;;;18.00;90.80;;;;;;5042232;28;20468;-83
2022/09/16 10:20:57;;;;;;;2.10;0.70;;;19.20;89.90;;;;;;5044824;28;20464;-84
2022/09/16 10:23:24;;;;;;;1.97;1.03;;;20.00;84.50;;;;;;5045430;28;20507;-83
2022/09/16 10:26:24;;;;;;;1.97;0.90;;;20.80;80.20;;;;;;5041264;28;20490;-82
2022/09/16 10:29:15;;;;;;;1.60;1.13;;;20.80;77.10;;;;;;5041144;28;20461;-82
2022/09/16 10:31:42;;;;;;;2.97;1.50;;;21.30;74.20;;;;;;5033470;28;20596;-81
2022/09/16 10:34:21;;;;;;;3.03;1.20;;;21.00;74.20;;;;;;5032246;28;20563;-80
2022/09/16 10:37:00;;;;;;;1.20;0.77;;;20.90;74.20;;;;;;5047244;28;21341;-83
2022/09/16 10:39:29;;;;;;;1.20;0.90;;;21.10;72.90;;;;;;5033245;28;20496;-82
2022/09/16 10:41:56;;;;;;;1.30;0.70;;;21.40;72.10;;;;;;5035523;28;20461;-82
2022/09/16 10:44:32;;;;;;;0.70;0.70;;;21.60;69.40;;;;;;5032082;28;20493;-82
2022/09/16 10:47:15;;;;;;;2.53;1.03;;;21.30;67.50;;;;;;5031054;28;20460;-83
2022/09/16 10:49:51;;;;;;;1.33;0.87;;;21.40;69.40;;;;;;5033377;28;20725;-83
2022/09/16 10:52:21;;;;;;;2.47;0.93;;;22.00;68.30;;;;;;5035902;28;20459;-82
2022/09/16 10:54:49;;;;;;;1.57;1.10;;;22.00;66.20;;;;;;5039731;28;20468;-81
2022/09/16 10:57:40;;;;;;;3.10;1.20;;;21.60;64.80;;;;;;5053404;28;20457;-81
2022/09/16 11:00:26;;;;;;;1.30;1.10;;;20.80;66.60;;;;;;5041303;28;20472;-83
2022/09/16 11:03:17;;;;;;;4.20;1.37;;;20.70;69.70;;;;;;5049313;28;20460;-82
2022/09/16 11:05:58;;;;;;;2.30;0.97;;;20.50;69.80;;;;;;5052185;28;20452;-84
2022/09/16 11:08:53;;;;;;;18.57;16.70;;;20.10;72.00;;;;;;5051433;28;20509;-82
2022/09/16 11:11:39;;;;;;;4.77;1.60;;;19.80;73.20;;;;;;5035597;28;20507;-82
2022/09/16 11:14:14;;;;;;;2.00;0.90;;;19.80;73.00;;;;;;5038210;28;20571;-82
2022/09/16 11:17:10;;;;;;;1.43;1.00;;;19.60;72.00;;;;;;5047155;28;20542;-82
2022/09/16 11:20:03;;;;;;;1.70;1.60;;;19.40;73.20;;;;;;5041124;28;20468;-80
2022/09/16 11:22:33;;;;;;;3.80;1.20;;;19.20;74.50;;;;;;5039866;28;20521;-83
2022/09/16 11:25:28;;;;;;;1.40;1.10;;;19.10;76.10;;;;;;5038589;28;20481;-82
2022/09/16 11:28:12;;;;;;;1.73;0.83;;;19.00;76.20;;;;;;5036345;28;20556;-85
2022/09/16 11:30:54;;;;;;;1.70;0.70;;;19.70;75.20;;;;;;5040349;28;20456;-85
2022/09/16 11:33:42;;;;;;;2.63;0.90;;;20.20;72.90;;;;;;5043690;28;20480;-84
2022/09/16 11:37:02;;;;;;;1.90;0.80;;;20.30;71.50;;;;;;5042744;28;21019;-83
2022/09/16 11:40:40;;;;;;;1.07;0.70;;;20.40;70.80;;;;;;5040832;28;20559;-84
2022/09/16 11:43:59;;;;;;;1.60;0.80;;;21.00;69.40;;;;;;5030489;28;21033;-85
2022/09/16 11:46:59;;;;;;;1.63;0.83;;;21.50;65.80;;;;;;5037612;28;20477;-83
2022/09/16 11:50:07;;;;;;;1.57;1.00;;;21.80;62.30;;;;;;5054188;28;20464;-83
2022/09/16 11:52:45;;;;;;;3.27;0.80;;;21.40;63.30;;;;;;5038567;28;20469;-83
2022/09/16 11:55:25;;;;;;;1.27;1.17;;;21.40;63.30;;;;;;5037861;28;20456;-82
2022/09/16 11:58:02;;;;;;;1.47;1.20;;;21.50;60.40;;;;;;5051219;28;20471;-81
2022/09/16 12:00:35;;;;;;;3.87;1.10;;;21.40;59.90;;;;;;5037580;28;20552;-82
2022/09/16 12:03:09;;;;;;;1.90;0.80;;;21.30;60.80;;;;;;5037283;28;20452;-83
2022/09/16 12:05:52;;;;;;;1.27;0.67;;;20.90;62.00;;;;;;5037297;28;20449;-81
2022/09/16 12:08:47;;;;;;;1.27;0.63;;;20.80;63.50;;;;;;5036112;28;20483;-84
2022/09/16 12:11:15;;;;;;;1.17;0.83;;;20.70;65.20;;;;;;5052524;28;20484;-83
2022/09/16 12:13:52;;;;;;;1.50;0.70;;;20.70;65.00;;;;;;5052774;28;20570;-83
2022/09/16 12:16:41;;;;;;;1.27;0.70;;;20.60;64.20;;;;;;5033880;28;20441;-83
2022/09/16 12:19:23;;;;;;;2.10;0.80;;;20.10;66.20;;;;;;5033996;28;21172;-82
2022/09/16 12:22:09;;;;;;;1.73;0.70;;;20.00;67.80;;;;;;5034744;28;20542;-83
2022/09/16 12:24:42;;;;;;;0.67;0.67;;;20.20;67.70;;;;;;5034340;28;20452;-83
2022/09/16 12:27:24;;;;;;;1.47;0.97;;;20.60;67.00;;;;;;5033357;28;20547;-83
2022/09/16 12:29:57;;;;;;;1.27;0.83;;;20.70;66.70;;;;;;5033772;28;20575;-83
2022/09/16 12:32:44;;;;;;;1.57;0.60;;;20.60;67.80;;;;;;5035351;28;20464;-83
2022/09/16 12:35:23;;;;;;;1.63;0.97;;;20.50;68.40;;;;;;5050412;28;20501;-81
2022/09/16 12:37:53;;;;;;;1.37;0.80;;;20.20;70.10;;;;;;5042599;28;20480;-81
2022/09/16 12:40:25;;;;;;;2.27;1.30;;;19.50;74.10;;;;;;5033275;28;20523;-83
2022/09/16 12:42:52;;;;;;;3.60;1.00;;;19.00;83.80;;;;;;5037099;28;20958;-82
2022/09/16 12:45:44;;;;;;;2.20;1.20;;;18.40;90.20;;;;;;5048653;28;20452;-81
2022/09/16 12:48:29;;;;;;;1.47;0.80;;;17.90;92.80;;;;;;5045806;28;20461;-81
2022/09/16 12:51:23;;;;;;;1.23;1.10;;;17.40;93.60;;;;;;5034297;28;20468;-81
2022/09/16 12:54:27;;;;;;;1.73;1.10;;;17.10;94.70;;;;;;5049939;28;20479;-82
2022/09/16 12:57:03;;;;;;;5.03;0.80;;;16.90;96.00;;;;;;5033283;28;20474;-83
2022/09/16 13:00:08;;;;;;;0.87;0.70;;;16.90;96.40;;;;;;5033692;28;20452;-83
2022/09/16 13:02:48;;;;;;;2.60;0.80;;;17.00;96.40;;;;;;5033584;28;20449;-82
2022/09/16 13:05:22;;;;;;;1.57;0.70;;;17.00;96.60;;;;;;5033205;28;20464;-82
2022/09/16 13:07:53;;;;;;;2.97;1.20;;;16.90;96.80;;;;;;5047029;28;20480;-82
2022/09/16 13:10:30;;;;;;;3.60;1.27;;;17.00;97.50;;;;;;5032466;28;20496;-83
2022/09/16 13:13:23;;;;;;;2.43;1.13;;;17.20;97.50;;;;;;5034087;28;20441;-82
2022/09/16 13:15:57;;;;;;;3.07;1.00;;;17.20;97.10;;;;;;5046331;28;20452;-82
2022/09/16 13:18:37;;;;;;;2.70;1.60;;;17.20;97.30;;;;;;5030586;28;20463;-82
2022/09/16 13:21:13;;;;;;;1.77;0.90;;;17.30;97.30;;;;;;5029112;28;20509;-83
2022/09/16 13:23:44;;;;;;;1.23;0.60;;;17.30;97.10;;;;;;5032160;28;20440;-83
2022/09/16 13:26:11;;;;;;;1.47;0.87;;;17.20;96.40;;;;;;5032811;28;21277;-83
2022/09/16 13:28:49;;;;;;;1.60;0.77;;;17.10;96.10;;;;;;5047985;28;20863;-80